createdAt,value
2022-11-24T00:00:33.093Z,11.96
2022-11-24T00:03:00.762Z,12.01
2022-11-24T00:05:27.833Z,12.00
2022-11-24T00:07:54.683Z,11.99
2022-11-24T00:10:21.561Z,12.02
2022-11-24T00:12:48.430Z,12.01
2022-11-24T00:15:15.421Z,11.99
2022-11-24T00:17:42.250Z,11.99
2022-11-24T00:20:09.995Z,11.97
2022-11-24T00:22:36.883Z,11.96
2022-11-24T00:25:04.354Z,11.95
2022-11-24T00:27:31.228Z,11.96
2022-11-24T00:29:59.741Z,11.98
2022-11-24T00:32:30.367Z,11.95
2022-11-24T00:34:57.410Z,11.85
2022-11-24T00:37:24.337Z,11.84
2022-11-24T00:39:51.189Z,11.79
2022-11-24T00:42:18.841Z,11.77
2022-11-24T00:44:45.806Z,11.73
2022-11-24T00:47:12.730Z,11.71
2022-11-24T00:49:39.687Z,11.72
2022-11-24T00:52:06.631Z,11.67
2022-11-24T00:54:33.656Z,11.65
2022-11-24T00:57:00.677Z,11.66
2022-11-24T00:59:27.543Z,11.64
2022-11-24T01:01:54.501Z,11.64
2022-11-24T01:04:21.570Z,11.63
2022-11-24T01:06:48.385Z,11.66
2022-11-24T01:09:15.213Z,11.63
2022-11-24T01:12:00.712Z,11.63
2022-11-24T01:14:27.585Z,11.61
2022-11-24T01:16:55.133Z,11.58
2022-11-24T01:19:22.429Z,11.63
2022-11-24T01:21:49.643Z,11.64
2022-11-24T01:24:16.621Z,11.64
2022-11-24T01:26:43.520Z,11.68
2022-11-24T01:29:11.303Z,11.74
2022-11-24T01:31:38.353Z,11.79
2022-11-24T01:34:05.225Z,11.84
2022-11-24T01:36:32.145Z,11.88
2022-11-24T01:38:59.079Z,11.91
2022-11-24T01:41:26.737Z,11.95
2022-11-24T01:43:54.730Z,11.97
2022-11-24T01:46:30.436Z,12.00
2022-11-24T01:49:09.079Z,12.05
2022-11-24T01:51:43.212Z,12.08
2022-11-24T01:54:14.639Z,12.08
2022-11-24T01:56:42.957Z,12.13
2022-11-24T01:59:12.434Z,12.16
2022-11-24T02:01:39.496Z,12.18
2022-11-24T02:04:10.527Z,12.19
2022-11-24T02:06:37.570Z,12.22
2022-11-24T02:09:10.920Z,12.25
2022-11-24T02:11:40.097Z,12.27
2022-11-24T02:14:10.149Z,12.26
2022-11-24T02:16:37.524Z,12.27
2022-11-24T02:19:09.493Z,12.29
2022-11-24T02:21:36.349Z,12.31
2022-11-24T02:24:09.749Z,12.33
2022-11-24T02:26:42.594Z,12.33
2022-11-24T02:29:10.742Z,12.36
2022-11-24T02:31:39.235Z,12.35
2022-11-24T02:34:06.138Z,12.37
2022-11-24T02:36:32.994Z,12.37
2022-11-24T02:38:59.820Z,12.38
2022-11-24T02:41:28.180Z,12.40
2022-11-24T02:43:57.145Z,12.38
2022-11-24T02:46:24.289Z,12.38
2022-11-24T02:48:51.321Z,12.38
2022-11-24T02:51:18.283Z,12.39
2022-11-24T02:53:45.293Z,12.39
2022-11-24T02:56:12.353Z,12.40
2022-11-24T02:58:39.232Z,12.42
2022-11-24T03:01:06.196Z,12.43
2022-11-24T03:03:33.145Z,12.44
2022-11-24T03:06:00.064Z,12.43
2022-11-24T03:08:26.922Z,12.44
2022-11-24T03:10:54.730Z,12.45
2022-11-24T03:13:21.617Z,12.46
2022-11-24T03:15:48.945Z,12.47
2022-11-24T03:18:15.842Z,12.47
2022-11-24T03:20:42.702Z,12.49
2022-11-24T03:23:09.635Z,12.49
2022-11-24T03:25:36.571Z,12.49
2022-11-24T03:28:03.765Z,12.50
2022-11-24T03:30:30.680Z,12.50
2022-11-24T03:32:57.614Z,12.51
2022-11-24T03:35:24.602Z,12.50
2022-11-24T03:37:51.571Z,12.51
2022-11-24T03:40:18.571Z,12.51
2022-11-24T03:42:45.416Z,12.51
2022-11-24T03:45:37.841Z,12.49
2022-11-24T03:47:59.499Z,12.49
2022-11-24T03:50:26.382Z,12.49
2022-11-24T03:52:53.216Z,12.50
2022-11-24T03:55:20.050Z,12.50
2022-11-24T03:57:46.929Z,12.49
2022-11-24T04:00:14.348Z,12.50
2022-11-24T04:02:41.326Z,12.50
2022-11-24T04:05:08.553Z,12.51
2022-11-24T04:07:35.633Z,12.50
2022-11-24T04:10:02.541Z,12.51
2022-11-24T04:12:44.755Z,12.52
2022-11-24T04:15:17.022Z,12.55
2022-11-24T04:17:44.360Z,12.56
2022-11-24T04:20:12.505Z,12.57
2022-11-24T04:22:39.898Z,12.57
2022-11-24T04:25:07.786Z,12.61
2022-11-24T04:27:35.890Z,12.62
2022-11-24T04:30:03.691Z,12.65
2022-11-24T04:32:30.544Z,12.68
2022-11-24T04:34:57.418Z,12.66
2022-11-24T04:37:24.240Z,12.68
2022-11-24T04:39:51.104Z,12.69
2022-11-24T04:42:17.994Z,12.70
2022-11-24T04:44:44.822Z,12.71
2022-11-24T04:47:17.664Z,12.70
2022-11-24T04:49:44.507Z,12.74
2022-11-24T04:52:11.337Z,12.76
2022-11-24T04:54:38.224Z,12.76
2022-11-24T04:57:05.167Z,12.79
2022-11-24T04:59:32.169Z,12.80
2022-11-24T05:01:59.174Z,12.83
2022-11-24T05:04:26.245Z,12.84
2022-11-24T05:06:53.094Z,12.85
2022-11-24T05:09:19.883Z,12.85
2022-11-24T05:11:46.776Z,12.85
2022-11-24T05:14:13.574Z,12.85
2022-11-24T05:16:40.897Z,12.86
2022-11-24T05:19:07.794Z,12.86
2022-11-24T05:21:34.584Z,12.84
2022-11-24T05:24:01.436Z,12.82
2022-11-24T05:26:28.398Z,12.81
2022-11-24T05:28:55.204Z,12.82
2022-11-24T05:31:22.033Z,12.84
2022-11-24T05:33:49.070Z,12.84
2022-11-24T05:36:34.455Z,12.84
2022-11-24T05:39:01.588Z,12.86
2022-11-24T05:41:28.440Z,12.85
2022-11-24T05:43:55.260Z,12.86
2022-11-24T05:46:22.087Z,12.86
2022-11-24T05:48:49.192Z,12.87
2022-11-24T05:51:16.060Z,12.89
2022-11-24T05:53:42.899Z,12.89
2022-11-24T05:56:09.849Z,12.88
2022-11-24T05:58:36.681Z,12.89
2022-11-24T06:01:06.905Z,12.91
2022-11-24T06:03:33.957Z,12.91
2022-11-24T06:06:01.052Z,12.90
2022-11-24T06:08:31.022Z,12.90
2022-11-24T06:11:20.118Z,12.90
2022-11-24T06:13:48.753Z,12.91
2022-11-24T06:16:16.291Z,12.88
2022-11-24T06:18:43.203Z,12.89
2022-11-24T06:21:11.655Z,12.87
2022-11-24T06:23:39.283Z,12.86
2022-11-24T06:26:06.758Z,12.85
2022-11-24T06:28:33.539Z,12.86
2022-11-24T06:31:02.142Z,12.85
2022-11-24T06:33:35.786Z,12.84
2022-11-24T06:36:04.945Z,12.84
2022-11-24T06:38:32.216Z,12.84
2022-11-24T06:41:03.064Z,12.85
2022-11-24T06:43:30.775Z,12.85
2022-11-24T06:45:57.828Z,12.87
2022-11-24T06:48:25.536Z,12.87
2022-11-24T06:50:53.140Z,12.90
2022-11-24T06:53:20.216Z,12.90
2022-11-24T06:55:47.527Z,12.92
2022-11-24T06:58:14.362Z,12.89
2022-11-24T07:00:41.301Z,12.91
2022-11-24T07:03:09.008Z,12.88
2022-11-24T07:05:36.000Z,12.88
2022-11-24T07:08:02.900Z,12.90
2022-11-24T07:10:29.743Z,12.89
2022-11-24T07:12:56.635Z,12.91
2022-11-24T07:15:23.461Z,12.91
2022-11-24T07:17:50.336Z,12.90
2022-11-24T07:20:17.414Z,12.93
2022-11-24T07:22:44.314Z,12.92
2022-11-24T07:25:11.267Z,12.95
2022-11-24T07:27:38.061Z,12.96
2022-11-24T07:30:05.518Z,13.00
2022-11-24T07:32:33.146Z,13.00
2022-11-24T07:35:00.186Z,13.01
2022-11-24T07:37:31.249Z,13.06
2022-11-24T07:39:58.853Z,13.06
2022-11-24T07:42:25.643Z,13.08
2022-11-24T07:44:52.417Z,13.08
2022-11-24T07:47:19.252Z,13.10
2022-11-24T07:49:46.072Z,13.10
2022-11-24T07:52:12.880Z,13.14
2022-11-24T07:54:39.828Z,13.14
2022-11-24T07:57:06.618Z,13.15
2022-11-24T07:59:33.568Z,13.18
2022-11-24T08:02:00.730Z,13.16
2022-11-24T08:04:27.621Z,13.18
2022-11-24T08:06:54.431Z,13.19
2022-11-24T08:09:21.317Z,13.20
2022-11-24T08:11:48.142Z,13.20
2022-11-24T08:14:14.946Z,13.22
2022-11-24T08:16:41.961Z,13.21
2022-11-24T08:19:11.035Z,13.21
2022-11-24T08:21:38.595Z,13.21
2022-11-24T08:24:06.128Z,13.23
2022-11-24T08:26:32.955Z,13.25
2022-11-24T08:29:01.095Z,13.26
2022-11-24T08:31:38.434Z,13.25
2022-11-24T08:34:06.806Z,13.27
2022-11-24T08:36:34.120Z,13.30
2022-11-24T08:39:01.372Z,13.29
2022-11-24T08:41:28.821Z,13.30
2022-11-24T08:43:55.934Z,13.31
2022-11-24T08:46:23.692Z,13.34
2022-11-24T08:48:52.881Z,13.33
2022-11-24T08:51:22.229Z,13.35
2022-11-24T08:53:49.070Z,13.37
2022-11-24T08:56:15.881Z,13.40
2022-11-24T08:58:43.113Z,13.42
2022-11-24T09:01:13.468Z,13.45
2022-11-24T09:03:48.257Z,13.49
2022-11-24T09:06:25.409Z,13.55
2022-11-24T09:08:54.285Z,13.54
2022-11-24T09:11:21.642Z,13.56
2022-11-24T09:13:48.725Z,13.58
2022-11-24T09:16:21.292Z,13.58
2022-11-24T09:18:48.362Z,13.61
2022-11-24T09:21:18.359Z,13.60
2022-11-24T09:23:47.544Z,13.60
2022-11-24T09:26:30.544Z,13.61
2022-11-24T09:28:58.798Z,13.62
2022-11-24T09:31:27.901Z,13.59
2022-11-24T09:33:55.253Z,13.59
2022-11-24T09:36:22.529Z,13.58
2022-11-24T09:38:49.801Z,13.58
2022-11-24T09:41:35.294Z,13.57
2022-11-24T09:44:08.125Z,13.58
2022-11-24T09:46:58.927Z,13.58
2022-11-24T09:49:51.236Z,13.56
2022-11-24T09:52:23.559Z,13.58
2022-11-24T09:54:58.024Z,13.60
2022-11-24T09:57:26.260Z,13.60
2022-11-24T09:59:53.066Z,13.62
2022-11-24T10:02:19.983Z,13.63
2022-11-24T10:04:47.264Z,13.64
2022-11-24T10:07:22.711Z,13.67
2022-11-24T10:10:19.771Z,13.67
2022-11-24T10:13:16.276Z,13.69
2022-11-24T10:16:24.722Z,13.70
2022-11-24T10:19:22.535Z,13.72
2022-11-24T10:22:03.598Z,13.74
2022-11-24T10:24:52.533Z,13.74
2022-11-24T10:27:23.080Z,13.75
2022-11-24T10:29:51.926Z,13.74
2022-11-24T10:32:22.527Z,13.75
2022-11-24T10:34:52.513Z,13.79
2022-11-24T10:37:28.292Z,13.81
2022-11-24T10:40:21.317Z,13.85
2022-11-24T10:42:57.142Z,13.86
2022-11-24T10:45:23.970Z,13.90
2022-11-24T10:47:50.994Z,13.90
2022-11-24T10:50:33.340Z,13.93
2022-11-24T10:53:09.324Z,13.96
2022-11-24T10:55:54.508Z,14.00
2022-11-24T10:58:38.572Z,14.01
2022-11-24T11:01:14.628Z,14.02
2022-11-24T11:03:50.017Z,14.03
2022-11-24T11:06:27.605Z,14.02
2022-11-24T11:09:06.562Z,14.03
2022-11-24T11:11:38.825Z,14.05
2022-11-24T11:14:07.492Z,14.05
2022-11-24T11:16:38.088Z,14.07
2022-11-24T11:19:53.259Z,14.07
2022-11-24T11:22:13.088Z,14.08
2022-11-24T11:24:41.929Z,14.08
2022-11-24T11:27:20.479Z,14.09
2022-11-24T12:03:20.090Z,14.16
2022-11-24T15:06:16.166Z,13.53
2022-11-24T15:08:47.781Z,13.49
2022-11-24T15:11:15.209Z,13.49
2022-11-24T15:13:54.552Z,13.50
2022-11-24T15:16:22.845Z,13.51
2022-11-24T15:18:57.737Z,13.55
2022-11-24T15:21:35.669Z,13.58
2022-11-24T15:24:20.781Z,13.61
2022-11-24T15:26:47.788Z,13.63
2022-11-24T15:29:14.694Z,13.64
2022-11-24T15:31:45.229Z,13.66
2022-11-24T15:34:14.766Z,13.63
2022-11-24T15:36:41.546Z,13.66
2022-11-24T15:39:08.448Z,13.65
2022-11-24T15:41:35.335Z,13.65
2022-11-24T15:44:02.342Z,13.64
2022-11-24T15:46:31.118Z,13.66
2022-11-24T15:48:58.269Z,13.66
2022-11-24T15:51:26.506Z,13.67
2022-11-24T15:54:00.399Z,13.65
2022-11-24T15:56:32.604Z,13.67
2022-11-24T15:59:01.239Z,13.66
2022-11-24T16:01:33.225Z,13.64
2022-11-24T16:04:03.240Z,13.62
2022-11-24T16:06:30.625Z,13.59
2022-11-24T16:08:58.316Z,13.51
2022-11-24T16:11:25.221Z,13.51
2022-11-24T16:13:53.731Z,13.51
2022-11-24T16:16:23.038Z,13.51
2022-11-24T16:18:50.132Z,13.52
2022-11-24T16:21:17.377Z,13.49
2022-11-24T16:23:44.648Z,13.45
2022-11-24T16:26:11.431Z,13.44
2022-11-24T16:28:38.210Z,13.43
2022-11-24T16:31:05.194Z,13.41
2022-11-24T16:33:32.196Z,13.37
2022-11-24T16:35:59.018Z,13.36
2022-11-24T16:38:26.139Z,13.34
2022-11-24T16:40:54.158Z,13.32
2022-11-24T16:43:21.193Z,13.33
2022-11-24T16:46:07.446Z,13.31
2022-11-24T16:48:37.571Z,13.29
2022-11-24T16:51:08.992Z,13.28
2022-11-24T16:53:36.353Z,13.29
2022-11-24T16:56:03.242Z,13.26
2022-11-24T16:58:30.058Z,13.23
2022-11-24T17:01:06.367Z,13.21
2022-11-24T17:03:33.982Z,13.18
2022-11-24T17:06:01.271Z,13.16
2022-11-24T17:08:32.051Z,13.13
2022-11-24T17:11:05.185Z,13.13
2022-11-24T17:13:33.300Z,13.13
2022-11-24T17:16:04.541Z,13.11
2022-11-24T17:18:31.391Z,13.11
2022-11-24T17:21:03.154Z,13.08
2022-11-24T17:23:32.933Z,13.06
2022-11-24T17:26:04.478Z,13.07
2022-11-24T17:28:31.340Z,13.05
2022-11-24T17:30:58.379Z,13.03
2022-11-24T17:33:25.177Z,12.99
2022-11-24T17:35:51.989Z,12.99
2022-11-24T17:38:18.854Z,12.98
2022-11-24T17:40:48.546Z,12.94
2022-11-24T17:43:15.352Z,12.92
2022-11-24T17:45:42.262Z,12.88
2022-11-24T17:48:09.089Z,12.87
2022-11-24T17:50:35.874Z,12.85
2022-11-24T17:53:02.749Z,12.87
2022-11-24T17:55:29.539Z,12.88
2022-11-24T17:57:56.771Z,12.83
2022-11-24T18:00:23.797Z,12.76
2022-11-24T18:02:50.679Z,12.75
2022-11-24T18:05:17.582Z,12.74
2022-11-24T18:07:44.479Z,12.65
2022-11-24T18:10:11.691Z,12.67
2022-11-24T18:12:38.490Z,12.70
2022-11-24T18:15:05.767Z,12.71
2022-11-24T18:17:32.611Z,12.71
2022-11-24T18:19:59.412Z,12.66
2022-11-24T18:22:50.092Z,12.67
2022-11-24T18:25:13.345Z,12.68
2022-11-24T18:27:41.646Z,12.67
2022-11-24T18:30:08.847Z,12.63
2022-11-24T18:32:35.703Z,12.61
2022-11-24T18:35:02.539Z,12.64
2022-11-24T18:37:30.791Z,12.62
2022-11-24T18:39:57.557Z,12.54
2022-11-24T18:42:25.814Z,12.61
2022-11-24T18:44:54.273Z,12.56
2022-11-24T18:47:21.241Z,12.54
2022-11-24T18:49:48.068Z,12.57
2022-11-24T18:52:14.932Z,12.57
2022-11-24T18:54:41.970Z,12.56
2022-11-24T18:57:08.809Z,12.50
2022-11-24T18:59:36.895Z,12.49
2022-11-24T19:02:03.819Z,12.45
2022-11-24T19:04:30.632Z,12.43
2022-11-24T19:06:57.464Z,12.36
2022-11-24T19:09:25.698Z,12.41
2022-11-24T19:11:52.562Z,12.44
2022-11-24T19:14:19.564Z,12.38
2022-11-24T19:16:48.406Z,12.35
2022-11-24T19:19:17.208Z,12.36
2022-11-24T19:21:44.510Z,12.37
2022-11-24T19:24:11.616Z,12.37
2022-11-24T19:26:39.133Z,12.31
2022-11-24T19:29:07.312Z,12.33
2022-11-24T19:31:35.127Z,12.35
2022-11-24T19:34:03.208Z,12.38
2022-11-24T19:36:30.335Z,12.37
2022-11-24T19:38:58.082Z,12.40
2022-11-24T19:41:27.086Z,12.43
2022-11-24T19:43:54.836Z,12.40
2022-11-24T19:46:23.205Z,12.37
2022-11-24T19:48:51.272Z,12.41
2022-11-24T19:51:20.645Z,12.44
2022-11-24T19:53:47.635Z,12.48
2022-11-24T19:56:20.244Z,12.50
2022-11-24T19:58:47.669Z,12.48
2022-11-24T20:01:17.027Z,12.52
2022-11-24T20:03:45.419Z,12.52
2022-11-24T20:06:13.760Z,12.50
2022-11-24T20:08:41.442Z,12.48
2022-11-24T20:11:13.907Z,12.51
2022-11-24T20:13:42.550Z,12.52
